sensor_id;sensor_type;location;lat;lon;timestamp;temperature;humidity
14097;DHT22;7125;48.106;11.544;2023-02-26T00:00:07;-0.50;99.90
14097;DHT22;7125;48.106;11.544;2023-02-26T00:02:37;-0.60;99.90
14097;DHT22;7125;48.106;11.544;2023-02-26T00:05:05;-0.60;99.90
14097;DHT22;7125;48.106;11.544;2023-02-26T00:07:32;-0.60;99.90
14097;DHT22;7125;48.106;11.544;2023-02-26T00:09:59;-0.60;99.90
14097;DHT22;7125;48.106;11.544;2023-02-26T00:12:29;-0.60;99.90
14097;DHT22;7125;48.106;11.544;2023-02-26T00:14:56;-0.60;99.90
14097;DHT22;7125;48.106;11.544;2023-02-26T00:17:40;-0.60;99.90
14097;DHT22;7125;48.106;11.544;2023-02-26T00:20:09;-0.60;99.90
14097;DHT22;7125;48.106;11.544;2023-02-26T00:22:37;-0.60;99.90
14097;DHT22;7125;48.106;11.544;2023-02-26T00:25:05;-0.50;99.90
14097;DHT22;7125;48.106;11.544;2023-02-26T00:27:34;-0.50;99.90
14097;DHT22;7125;48.106;11.544;2023-02-26T00:30:02;-0.50;99.90
14097;DHT22;7125;48.106;11.544;2023-02-26T00:32:29;-0.50;99.90
14097;DHT22;7125;48.106;11.544;2023-02-26T00:34:57;-0.50;99.90
14097;DHT22;7125;48.106;11.544;2023-02-26T00:37:33;-0.50;99.90
14097;DHT22;7125;48.106;11.544;2023-02-26T00:40:16;-0.50;99.90
14097;DHT22;7125;48.106;11.544;2023-02-26T00:42:46;-0.60;99.90
14097;DHT22;7125;48.106;11.544;2023-02-26T00:45:15;-0.60;99.90
14097;DHT22;7125;48.106;11.544;2023-02-26T00:47:48;-0.60;99.90
14097;DHT22;7125;48.106;11.544;2023-02-26T00:50:19;-0.60;99.90
14097;DHT22;7125;48.106;11.544;2023-02-26T00:52:55;-0.60;99.90
14097;DHT22;7125;48.106;11.544;2023-02-26T00:55:23;-0.60;99.90
14097;DHT22;7125;48.106;11.544;2023-02-26T00:57:52;-0.60;99.90
14097;DHT22;7125;48.106;11.544;2023-02-26T01:00:20;-0.60;99.90
14097;DHT22;7125;48.106;11.544;2023-02-26T01:02:47;-0.60;99.90
14097;DHT22;7125;48.106;11.544;2023-02-26T01:05:16;-0.50;99.90
14097;DHT22;7125;48.106;11.544;2023-02-26T01:07:46;-0.60;99.90
14097;DHT22;7125;48.106;11.544;2023-02-26T01:10:19;-0.60;99.90
14097;DHT22;7125;48.106;11.544;2023-02-26T01:12:47;-0.60;99.90
14097;DHT22;7125;48.106;11.544;2023-02-26T01:15:16;-0.70;99.90
14097;DHT22;7125;48.106;11.544;2023-02-26T01:17:47;-0.70;99.90
14097;DHT22;7125;48.106;11.544;2023-02-26T01:20:19;-0.70;99.90
14097;DHT22;7125;48.106;11.544;2023-02-26T01:22:51;-0.70;99.90
14097;DHT22;7125;48.106;11.544;2023-02-26T01:25:23;-0.70;99.90
14097;DHT22;7125;48.106;11.544;2023-02-26T01:27:51;-0.70;99.90
14097;DHT22;7125;48.106;11.544;2023-02-26T01:30:24;-0.70;99.90
14097;DHT22;7125;48.106;11.544;2023-02-26T01:32:57;-0.70;99.90
14097;DHT22;7125;48.106;11.544;2023-02-26T01:35:38;-0.70;99.90
14097;DHT22;7125;48.106;11.544;2023-02-26T01:38:15;-0.70;99.90
14097;DHT22;7125;48.106;11.544;2023-02-26T01:41:21;-0.70;99.90
14097;DHT22;7125;48.106;11.544;2023-02-26T01:44:04;-0.80;99.90
14097;DHT22;7125;48.106;11.544;2023-02-26T01:46:56;-0.80;99.90
14097;DHT22;7125;48.106;11.544;2023-02-26T01:49:27;-0.90;99.90
14097;DHT22;7125;48.106;11.544;2023-02-26T01:51:56;-0.90;99.90
14097;DHT22;7125;48.106;11.544;2023-02-26T01:54:24;-0.90;99.90
14097;DHT22;7125;48.106;11.544;2023-02-26T01:56:58;-0.90;99.90
14097;DHT22;7125;48.106;11.544;2023-02-26T01:59:26;-0.90;99.90
14097;DHT22;7125;48.106;11.544;2023-02-26T02:01:56;-0.90;99.90
14097;DHT22;7125;48.106;11.544;2023-02-26T02:04:24;-0.90;99.90
14097;DHT22;7125;48.106;11.544;2023-02-26T02:06:52;-1.00;99.90
14097;DHT22;7125;48.106;11.544;2023-02-26T02:09:20;-1.00;99.90
14097;DHT22;7125;48.106;11.544;2023-02-26T02:12:07;-1.00;99.90
14097;DHT22;7125;48.106;11.544;2023-02-26T02:14:44;-1.00;99.90
14097;DHT22;7125;48.106;11.544;2023-02-26T02:20:25;-0.90;99.90
14097;DHT22;7125;48.106;11.544;2023-02-26T02:23:10;-1.00;99.90
14097;DHT22;7125;48.106;11.544;2023-02-26T02:26:08;-0.90;99.90
14097;DHT22;7125;48.106;11.544;2023-02-26T02:28:56;-1.00;99.90
14097;DHT22;7125;48.106;11.544;2023-02-26T02:31:33;-1.00;99.90
14097;DHT22;7125;48.106;11.544;2023-02-26T02:34:06;-1.00;99.90
14097;DHT22;7125;48.106;11.544;2023-02-26T02:36:42;-1.00;99.90
14097;DHT22;7125;48.106;11.544;2023-02-26T02:39:15;-1.10;99.90
14097;DHT22;7125;48.106;11.544;2023-02-26T02:41:46;-1.10;99.90
14097;DHT22;7125;48.106;11.544;2023-02-26T02:44:17;-1.10;99.90
14097;DHT22;7125;48.106;11.544;2023-02-26T02:46:48;-1.10;99.90
14097;DHT22;7125;48.106;11.544;2023-02-26T02:49:22;-1.20;99.90
14097;DHT22;7125;48.106;11.544;2023-02-26T02:51:52;-1.20;99.90
14097;DHT22;7125;48.106;11.544;2023-02-26T02:54:23;-1.20;99.90
14097;DHT22;7125;48.106;11.544;2023-02-26T02:56:53;-1.20;99.90
14097;DHT22;7125;48.106;11.544;2023-02-26T02:59:26;-1.20;99.90
14097;DHT22;7125;48.106;11.544;2023-02-26T03:02:05;-1.10;99.90
14097;DHT22;7125;48.106;11.544;2023-02-26T03:04:34;-1.20;99.90
14097;DHT22;7125;48.106;11.544;2023-02-26T03:07:02;-1.20;99.90
14097;DHT22;7125;48.106;11.544;2023-02-26T03:09:29;-1.20;99.90
14097;DHT22;7125;48.106;11.544;2023-02-26T03:11:56;-1.20;99.90
14097;DHT22;7125;48.106;11.544;2023-02-26T03:14:24;-1.10;99.90
14097;DHT22;7125;48.106;11.544;2023-02-26T03:17:08;-1.20;99.90
14097;DHT22;7125;48.106;11.544;2023-02-26T03:19:46;-1.20;99.90
14097;DHT22;7125;48.106;11.544;2023-02-26T03:22:33;-1.20;99.90
14097;DHT22;7125;48.106;11.544;2023-02-26T03:25:08;-1.20;99.90
14097;DHT22;7125;48.106;11.544;2023-02-26T03:27:42;-1.20;99.90
14097;DHT22;7125;48.106;11.544;2023-02-26T03:30:16;-1.20;99.90
14097;DHT22;7125;48.106;11.544;2023-02-26T03:32:56;-1.30;99.90
14097;DHT22;7125;48.106;11.544;2023-02-26T03:35:28;-1.30;99.90
14097;DHT22;7125;48.106;11.544;2023-02-26T03:38:02;-1.40;99.90
14097;DHT22;7125;48.106;11.544;2023-02-26T03:40:33;-1.40;99.90
14097;DHT22;7125;48.106;11.544;2023-02-26T03:43:05;-1.40;99.90
14097;DHT22;7125;48.106;11.544;2023-02-26T03:45:37;-1.50;99.90
14097;DHT22;7125;48.106;11.544;2023-02-26T03:48:08;-1.50;99.90
14097;DHT22;7125;48.106;11.544;2023-02-26T03:50:39;-1.60;99.90
14097;DHT22;7125;48.106;11.544;2023-02-26T03:53:22;-1.60;99.90
14097;DHT22;7125;48.106;11.544;2023-02-26T03:55:57;-1.60;99.90
14097;DHT22;7125;48.106;11.544;2023-02-26T03:58:46;-1.60;99.90
14097;DHT22;7125;48.106;11.544;2023-02-26T04:01:46;-1.60;99.90
14097;DHT22;7125;48.106;11.544;2023-02-26T04:04:22;-1.60;99.90
14097;DHT22;7125;48.106;11.544;2023-02-26T04:06:51;-1.60;99.90
14097;DHT22;7125;48.106;11.544;2023-02-26T04:09:20;-1.60;99.90
14097;DHT22;7125;48.106;11.544;2023-02-26T04:11:49;-1.60;99.90
14097;DHT22;7125;48.106;11.544;2023-02-26T04:14:17;-1.60;99.90
14097;DHT22;7125;48.106;11.544;2023-02-26T04:16:45;-1.60;99.90
14097;DHT22;7125;48.106;11.544;2023-02-26T04:19:12;-1.60;99.90
14097;DHT22;7125;48.106;11.544;2023-02-26T04:21:42;-1.70;99.90
14097;DHT22;7125;48.106;11.544;2023-02-26T04:24:11;-1.70;99.90
14097;DHT22;7125;48.106;11.544;2023-02-26T04:26:38;-1.70;99.90
14097;DHT22;7125;48.106;11.544;2023-02-26T04:29:09;-1.70;99.90
14097;DHT22;7125;48.106;11.544;2023-02-26T04:31:37;-1.70;99.90
14097;DHT22;7125;48.106;11.544;2023-02-26T04:34:05;-1.70;99.90
14097;DHT22;7125;48.106;11.544;2023-02-26T04:36:33;-1.70;99.90
14097;DHT22;7125;48.106;11.544;2023-02-26T04:39:01;-1.80;99.90
14097;DHT22;7125;48.106;11.544;2023-02-26T04:41:29;-1.80;99.90
14097;DHT22;7125;48.106;11.544;2023-02-26T04:43:56;-1.80;99.90
14097;DHT22;7125;48.106;11.544;2023-02-26T04:46:29;-1.80;99.90
14097;DHT22;7125;48.106;11.544;2023-02-26T04:48:57;-1.90;99.90
14097;DHT22;7125;48.106;11.544;2023-02-26T04:51:24;-1.90;99.90
14097;DHT22;7125;48.106;11.544;2023-02-26T04:53:51;-1.90;99.90
14097;DHT22;7125;48.106;11.544;2023-02-26T04:56:21;-1.90;99.90
14097;DHT22;7125;48.106;11.544;2023-02-26T04:58:48;-1.90;99.90
14097;DHT22;7125;48.106;11.544;2023-02-26T05:01:21;-1.90;99.90
14097;DHT22;7125;48.106;11.544;2023-02-26T05:03:48;-1.90;99.90
14097;DHT22;7125;48.106;11.544;2023-02-26T05:06:15;-1.90;99.90
14097;DHT22;7125;48.106;11.544;2023-02-26T05:08:42;-1.90;99.90
14097;DHT22;7125;48.106;11.544;2023-02-26T05:11:10;-1.90;99.90
14097;DHT22;7125;48.106;11.544;2023-02-26T05:13:38;-2.00;99.90
14097;DHT22;7125;48.106;11.544;2023-02-26T05:16:07;-2.00;99.90
14097;DHT22;7125;48.106;11.544;2023-02-26T05:18:34;-2.10;99.90
14097;DHT22;7125;48.106;11.544;2023-02-26T05:21:02;-2.10;99.90
14097;DHT22;7125;48.106;11.544;2023-02-26T05:23:29;-2.10;99.90
14097;DHT22;7125;48.106;11.544;2023-02-26T05:25:56;-2.20;99.90
14097;DHT22;7125;48.106;11.544;2023-02-26T05:28:24;-2.20;99.90
14097;DHT22;7125;48.106;11.544;2023-02-26T05:30:52;-2.30;99.90
14097;DHT22;7125;48.106;11.544;2023-02-26T05:33:20;-2.30;99.90
14097;DHT22;7125;48.106;11.544;2023-02-26T05:35:46;-2.40;99.90
14097;DHT22;7125;48.106;11.544;2023-02-26T05:38:14;-2.40;99.90
14097;DHT22;7125;48.106;11.544;2023-02-26T05:40:41;-2.40;99.90
14097;DHT22;7125;48.106;11.544;2023-02-26T05:43:08;-2.50;99.90
14097;DHT22;7125;48.106;11.544;2023-02-26T05:45:35;-2.50;99.90
14097;DHT22;7125;48.106;11.544;2023-02-26T05:48:03;-2.60;99.90
14097;DHT22;7125;48.106;11.544;2023-02-26T05:50:30;-2.60;99.90
14097;DHT22;7125;48.106;11.544;2023-02-26T05:52:57;-2.60;99.90
14097;DHT22;7125;48.106;11.544;2023-02-26T05:55:24;-2.70;99.90
14097;DHT22;7125;48.106;11.544;2023-02-26T05:57:51;-2.80;99.90
14097;DHT22;7125;48.106;11.544;2023-02-26T06:00:18;-2.80;99.90
14097;DHT22;7125;48.106;11.544;2023-02-26T06:02:45;-2.80;99.90
14097;DHT22;7125;48.106;11.544;2023-02-26T06:05:13;-2.80;99.90
14097;DHT22;7125;48.106;11.544;2023-02-26T06:07:40;-2.80;99.90
14097;DHT22;7125;48.106;11.544;2023-02-26T06:10:08;-2.80;99.90
14097;DHT22;7125;48.106;11.544;2023-02-26T06:12:36;-2.80;99.90
14097;DHT22;7125;48.106;11.544;2023-02-26T06:15:04;-2.90;99.90
14097;DHT22;7125;48.106;11.544;2023-02-26T06:17:32;-2.90;99.90
14097;DHT22;7125;48.106;11.544;2023-02-26T06:19:59;-2.90;99.90
14097;DHT22;7125;48.106;11.544;2023-02-26T06:22:29;-2.90;99.90
14097;DHT22;7125;48.106;11.544;2023-02-26T06:24:56;-2.90;99.90
14097;DHT22;7125;48.106;11.544;2023-02-26T06:27:23;-2.90;99.90
14097;DHT22;7125;48.106;11.544;2023-02-26T06:29:51;-2.90;99.90
14097;DHT22;7125;48.106;11.544;2023-02-26T06:32:17;-2.80;99.90
14097;DHT22;7125;48.106;11.544;2023-02-26T06:34:44;-2.70;99.90
14097;DHT22;7125;48.106;11.544;2023-02-26T06:37:11;-2.70;99.90
14097;DHT22;7125;48.106;11.544;2023-02-26T06:39:40;-2.60;99.90
14097;DHT22;7125;48.106;11.544;2023-02-26T06:42:07;-2.60;99.90
14097;DHT22;7125;48.106;11.544;2023-02-26T06:44:34;-2.50;99.90
14097;DHT22;7125;48.106;11.544;2023-02-26T06:47:01;-2.50;99.90
14097;DHT22;7125;48.106;11.544;2023-02-26T06:49:28;-2.40;99.90
14097;DHT22;7125;48.106;11.544;2023-02-26T06:51:56;-2.30;99.90
14097;DHT22;7125;48.106;11.544;2023-02-26T06:54:23;-2.30;99.90
14097;DHT22;7125;48.106;11.544;2023-02-26T06:56:51;-2.30;99.90
14097;DHT22;7125;48.106;11.544;2023-02-26T06:59:22;-2.20;99.90
14097;DHT22;7125;48.106;11.544;2023-02-26T07:01:49;-2.20;99.90
14097;DHT22;7125;48.106;11.544;2023-02-26T07:04:17;-2.20;99.90
14097;DHT22;7125;48.106;11.544;2023-02-26T07:06:43;-2.20;99.90
14097;DHT22;7125;48.106;11.544;2023-02-26T07:09:10;-2.20;99.90
14097;DHT22;7125;48.106;11.544;2023-02-26T07:11:37;-2.10;99.90
14097;DHT22;7125;48.106;11.544;2023-02-26T07:14:06;-2.10;99.90
14097;DHT22;7125;48.106;11.544;2023-02-26T07:16:33;-2.10;99.90
14097;DHT22;7125;48.106;11.544;2023-02-26T07:19:00;-2.10;99.90
14097;DHT22;7125;48.106;11.544;2023-02-26T07:21:27;-2.10;99.90
14097;DHT22;7125;48.106;11.544;2023-02-26T07:23:54;-2.00;99.90
14097;DHT22;7125;48.106;11.544;2023-02-26T07:26:21;-2.00;99.90
14097;DHT22;7125;48.106;11.544;2023-02-26T07:28:48;-1.90;99.90
14097;DHT22;7125;48.106;11.544;2023-02-26T07:31:16;-1.90;99.90
14097;DHT22;7125;48.106;11.544;2023-02-26T07:33:43;-1.90;99.90
14097;DHT22;7125;48.106;11.544;2023-02-26T07:36:11;-1.90;99.90
14097;DHT22;7125;48.106;11.544;2023-02-26T07:38:38;-1.80;99.90
14097;DHT22;7125;48.106;11.544;2023-02-26T07:41:04;-1.80;99.90
14097;DHT22;7125;48.106;11.544;2023-02-26T07:43:33;-1.70;99.90
14097;DHT22;7125;48.106;11.544;2023-02-26T07:46:00;-1.70;99.90
14097;DHT22;7125;48.106;11.544;2023-02-26T07:48:28;-1.70;99.90
14097;DHT22;7125;48.106;11.544;2023-02-26T07:50:55;-1.70;99.90
14097;DHT22;7125;48.106;11.544;2023-02-26T07:53:23;-1.60;99.90
14097;DHT22;7125;48.106;11.544;2023-02-26T07:55:50;-1.60;99.90
14097;DHT22;7125;48.106;11.544;2023-02-26T07:58:17;-1.60;99.90
14097;DHT22;7125;48.106;11.544;2023-02-26T08:00:44;-1.70;99.90
14097;DHT22;7125;48.106;11.544;2023-02-26T08:03:11;-1.60;99.90
14097;DHT22;7125;48.106;11.544;2023-02-26T08:05:41;-1.70;99.90
14097;DHT22;7125;48.106;11.544;2023-02-26T08:08:08;-1.70;99.90
14097;DHT22;7125;48.106;11.544;2023-02-26T08:10:35;-1.70;99.90
14097;DHT22;7125;48.106;11.544;2023-02-26T08:13:03;-1.70;99.90
14097;DHT22;7125;48.106;11.544;2023-02-26T08:15:31;-1.70;99.90
14097;DHT22;7125;48.106;11.544;2023-02-26T08:17:58;-1.60;99.90
14097;DHT22;7125;48.106;11.544;2023-02-26T08:20:25;-1.70;99.90
14097;DHT22;7125;48.106;11.544;2023-02-26T08:22:53;-1.60;99.90
14097;DHT22;7125;48.106;11.544;2023-02-26T08:25:20;-1.60;99.90
14097;DHT22;7125;48.106;11.544;2023-02-26T08:27:47;-1.50;99.90
14097;DHT22;7125;48.106;11.544;2023-02-26T08:30:14;-1.40;99.90
14097;DHT22;7125;48.106;11.544;2023-02-26T08:32:42;-1.30;99.90
14097;DHT22;7125;48.106;11.544;2023-02-26T08:35:10;-1.30;99.90
14097;DHT22;7125;48.106;11.544;2023-02-26T08:37:38;-1.30;99.90
14097;DHT22;7125;48.106;11.544;2023-02-26T08:40:09;-1.20;99.90
14097;DHT22;7125;48.106;11.544;2023-02-26T08:42:36;-1.20;99.90
14097;DHT22;7125;48.106;11.544;2023-02-26T08:45:04;-1.10;99.90
14097;DHT22;7125;48.106;11.544;2023-02-26T08:47:31;-1.10;99.90
14097;DHT22;7125;48.106;11.544;2023-02-26T08:49:58;-1.00;99.90
14097;DHT22;7125;48.106;11.544;2023-02-26T08:52:25;-1.00;99.90
14097;DHT22;7125;48.106;11.544;2023-02-26T08:54:52;-1.10;99.90
14097;DHT22;7125;48.106;11.544;2023-02-26T08:57:20;-1.10;99.90
14097;DHT22;7125;48.106;11.544;2023-02-26T08:59:47;-1.10;99.90
14097;DHT22;7125;48.106;11.544;2023-02-26T09:02:14;-1.10;99.90
14097;DHT22;7125;48.106;11.544;2023-02-26T09:04:41;-1.00;99.90
14097;DHT22;7125;48.106;11.544;2023-02-26T09:07:08;-0.90;99.90
14097;DHT22;7125;48.106;11.544;2023-02-26T09:09:37;-1.00;99.90
14097;DHT22;7125;48.106;11.544;2023-02-26T09:12:04;-1.00;99.90
14097;DHT22;7125;48.106;11.544;2023-02-26T09:14:33;-1.00;99.90
14097;DHT22;7125;48.106;11.544;2023-02-26T09:17:00;-1.00;99.90
14097;DHT22;7125;48.106;11.544;2023-02-26T09:19:28;-1.00;99.90
14097;DHT22;7125;48.106;11.544;2023-02-26T09:21:55;-1.00;99.90
14097;DHT22;7125;48.106;11.544;2023-02-26T09:24:22;-1.10;99.90
14097;DHT22;7125;48.106;11.544;2023-02-26T09:26:49;-1.10;99.90
14097;DHT22;7125;48.106;11.544;2023-02-26T09:29:16;-1.10;99.90
14097;DHT22;7125;48.106;11.544;2023-02-26T09:31:44;-1.10;99.90
14097;DHT22;7125;48.106;11.544;2023-02-26T09:34:11;-1.10;99.90
14097;DHT22;7125;48.106;11.544;2023-02-26T09:36:39;-1.10;99.90
14097;DHT22;7125;48.106;11.544;2023-02-26T09:39:08;-1.10;99.90
14097;DHT22;7125;48.106;11.544;2023-02-26T09:41:37;-1.00;99.90
14097;DHT22;7125;48.106;11.544;2023-02-26T09:44:18;-1.00;99.90
14097;DHT22;7125;48.106;11.544;2023-02-26T09:47:00;-1.10;99.90
14097;DHT22;7125;48.106;11.544;2023-02-26T09:49:42;-1.00;99.90
14097;DHT22;7125;48.106;11.544;2023-02-26T09:52:18;-1.00;99.90
14097;DHT22;7125;48.106;11.544;2023-02-26T09:54:49;-0.80;99.90
14097;DHT22;7125;48.106;11.544;2023-02-26T09:57:25;-0.70;99.90
14097;DHT22;7125;48.106;11.544;2023-02-26T09:59:53;-0.50;99.90
14097;DHT22;7125;48.106;11.544;2023-02-26T10:02:30;-0.30;99.90
14097;DHT22;7125;48.106;11.544;2023-02-26T10:05:03;-0.10;99.90
14097;DHT22;7125;48.106;11.544;2023-02-26T10:07:42;-0.20;99.90
14097;DHT22;7125;48.106;11.544;2023-02-26T10:10:19;-0.20;99.90
14097;DHT22;7125;48.106;11.544;2023-02-26T10:12:49;-0.30;99.90
14097;DHT22;7125;48.106;11.544;2023-02-26T10:15:21;-0.40;99.90
14097;DHT22;7125;48.106;11.544;2023-02-26T10:18:05;-0.30;99.90
14097;DHT22;7125;48.106;11.544;2023-02-26T10:20:36;-0.30;99.90
14097;DHT22;7125;48.106;11.544;2023-02-26T10:23:11;-0.30;99.90
14097;DHT22;7125;48.106;11.544;2023-02-26T10:25:46;-0.20;99.90
14097;DHT22;7125;48.106;11.544;2023-02-26T10:28:32;-0.20;99.90
14097;DHT22;7125;48.106;11.544;2023-02-26T10:31:04;-0.20;99.90
14097;DHT22;7125;48.106;11.544;2023-02-26T10:33:39;-0.20;99.90
14097;DHT22;7125;48.106;11.544;2023-02-26T10:36:16;-0.30;99.90
14097;DHT22;7125;48.106;11.544;2023-02-26T10:38:48;-0.20;99.90
14097;DHT22;7125;48.106;11.544;2023-02-26T10:41:19;-0.20;99.90
14097;DHT22;7125;48.106;11.544;2023-02-26T10:43:50;-0.20;99.90
14097;DHT22;7125;48.106;11.544;2023-02-26T10:46:24;-0.20;99.90
14097;DHT22;7125;48.106;11.544;2023-02-26T10:49:11;-0.10;99.90
14097;DHT22;7125;48.106;11.544;2023-02-26T10:51:41;0.00;99.90
14097;DHT22;7125;48.106;11.544;2023-02-26T10:54:15;0.00;99.90
14097;DHT22;7125;48.106;11.544;2023-02-26T10:56:42;0.00;99.90
14097;DHT22;7125;48.106;11.544;2023-02-26T10:59:09;0.00;99.90
14097;DHT22;7125;48.106;11.544;2023-02-26T11:01:36;0.00;99.90
14097;DHT22;7125;48.106;11.544;2023-02-26T11:04:07;0.10;99.90
14097;DHT22;7125;48.106;11.544;2023-02-26T11:06:44;0.00;99.90
14097;DHT22;7125;48.106;11.544;2023-02-26T11:09:19;0.00;99.90
14097;DHT22;7125;48.106;11.544;2023-02-26T11:11:52;0.10;99.90
14097;DHT22;7125;48.106;11.544;2023-02-26T11:14:20;0.20;99.90
14097;DHT22;7125;48.106;11.544;2023-02-26T11:16:49;0.30;99.90
14097;DHT22;7125;48.106;11.544;2023-02-26T11:19:26;0.40;99.90
14097;DHT22;7125;48.106;11.544;2023-02-26T11:21:54;0.50;99.90
14097;DHT22;7125;48.106;11.544;2023-02-26T11:24:27;0.50;99.90
14097;DHT22;7125;48.106;11.544;2023-02-26T11:26:57;0.40;99.90
14097;DHT22;7125;48.106;11.544;2023-02-26T11:29:26;0.40;99.90
14097;DHT22;7125;48.106;11.544;2023-02-26T11:31:54;0.40;99.90
14097;DHT22;7125;48.106;11.544;2023-02-26T11:34:24;0.50;99.90
14097;DHT22;7125;48.106;11.544;2023-02-26T11:36:54;0.70;99.90
14097;DHT22;7125;48.106;11.544;2023-02-26T11:39:23;0.80;99.90
14097;DHT22;7125;48.106;11.544;2023-02-26T11:41:54;0.90;99.90
14097;DHT22;7125;48.106;11.544;2023-02-26T11:44:29;0.90;99.90
14097;DHT22;7125;48.106;11.544;2023-02-26T11:47:01;0.90;99.90
14097;DHT22;7125;48.106;11.544;2023-02-26T11:49:31;0.80;99.90
14097;DHT22;7125;48.106;11.544;2023-02-26T11:52:05;0.70;99.90
14097;DHT22;7125;48.106;11.544;2023-02-26T11:54:39;0.60;99.90
14097;DHT22;7125;48.106;11.544;2023-02-26T11:57:15;0.50;99.90
14097;DHT22;7125;48.106;11.544;2023-02-26T11:59:44;0.40;99.90
14097;DHT22;7125;48.106;11.544;2023-02-26T12:02:14;0.30;99.90
14097;DHT22;7125;48.106;11.544;2023-02-26T12:04:44;0.20;99.90
14097;DHT22;7125;48.106;11.544;2023-02-26T12:07:15;0.20;99.90
14097;DHT22;7125;48.106;11.544;2023-02-26T12:09:43;0.20;99.90
14097;DHT22;7125;48.106;11.544;2023-02-26T12:12:33;0.40;99.90
14097;DHT22;7125;48.106;11.544;2023-02-26T12:15:12;0.60;99.90
14097;DHT22;7125;48.106;11.544;2023-02-26T12:17:51;0.70;99.90
14097;DHT22;7125;48.106;11.544;2023-02-26T12:20:26;0.60;99.90
14097;DHT22;7125;48.106;11.544;2023-02-26T12:23:11;0.50;99.90
14097;DHT22;7125;48.106;11.544;2023-02-26T12:25:57;0.30;99.90
14097;DHT22;7125;48.106;11.544;2023-02-26T12:28:47;0.20;99.90
14097;DHT22;7125;48.106;11.544;2023-02-26T12:31:33;0.10;99.90
14097;DHT22;7125;48.106;11.544;2023-02-26T12:34:22;0.30;99.90
14097;DHT22;7125;48.106;11.544;2023-02-26T12:37:08;0.40;99.90
14097;DHT22;7125;48.106;11.544;2023-02-26T12:39:52;0.70;99.90
14097;DHT22;7125;48.106;11.544;2023-02-26T12:42:29;0.80;99.90
14097;DHT22;7125;48.106;11.544;2023-02-26T12:45:23;1.00;99.90
14097;DHT22;7125;48.106;11.544;2023-02-26T12:48:07;1.20;99.90
14097;DHT22;7125;48.106;11.544;2023-02-26T12:50:50;1.20;99.90
14097;DHT22;7125;48.106;11.544;2023-02-26T12:53:50;1.20;99.90
14097;DHT22;7125;48.106;11.544;2023-02-26T12:56:51;1.00;99.90
14097;DHT22;7125;48.106;11.544;2023-02-26T12:59:37;0.80;99.90
14097;DHT22;7125;48.106;11.544;2023-02-26T13:02:40;0.80;99.90
14097;DHT22;7125;48.106;11.544;2023-02-26T13:05:30;0.90;99.90
14097;DHT22;7125;48.106;11.544;2023-02-26T13:08:11;1.10;99.90
14097;DHT22;7125;48.106;11.544;2023-02-26T13:10:53;1.10;99.90
14097;DHT22;7125;48.106;11.544;2023-02-26T13:13:33;1.20;99.90
14097;DHT22;7125;48.106;11.544;2023-02-26T13:16:12;1.40;99.90
14097;DHT22;7125;48.106;11.544;2023-02-26T13:18:50;1.70;99.90
14097;DHT22;7125;48.106;11.544;2023-02-26T13:21:22;1.80;99.90
14097;DHT22;7125;48.106;11.544;2023-02-26T13:23:52;1.90;99.90
14097;DHT22;7125;48.106;11.544;2023-02-26T13:26:22;1.60;99.90
14097;DHT22;7125;48.106;11.544;2023-02-26T13:28:53;1.30;99.90
14097;DHT22;7125;48.106;11.544;2023-02-26T13:31:26;1.00;99.90
14097;DHT22;7125;48.106;11.544;2023-02-26T13:33:56;0.90;99.90
14097;DHT22;7125;48.106;11.544;2023-02-26T13:36:26;0.80;99.90
14097;DHT22;7125;48.106;11.544;2023-02-26T13:39:09;0.80;99.90
14097;DHT22;7125;48.106;11.544;2023-02-26T13:41:56;0.80;99.90
14097;DHT22;7125;48.106;11.544;2023-02-26T13:44:31;0.90;99.90
14097;DHT22;7125;48.106;11.544;2023-02-26T13:47:15;0.90;99.90
14097;DHT22;7125;48.106;11.544;2023-02-26T13:49:54;0.90;99.90
14097;DHT22;7125;48.106;11.544;2023-02-26T13:52:25;0.90;99.90
14097;DHT22;7125;48.106;11.544;2023-02-26T13:54:53;0.90;99.90
14097;DHT22;7125;48.106;11.544;2023-02-26T13:57:34;0.90;99.90
14097;DHT22;7125;48.106;11.544;2023-02-26T14:00:07;0.90;99.90
14097;DHT22;7125;48.106;11.544;2023-02-26T14:02:46;0.80;99.90
14097;DHT22;7125;48.106;11.544;2023-02-26T14:08:50;0.70;99.90
14097;DHT22;7125;48.106;11.544;2023-02-26T14:11:43;0.70;99.90
14097;DHT22;7125;48.106;11.544;2023-02-26T14:14:22;0.60;99.90
14097;DHT22;7125;48.106;11.544;2023-02-26T14:16:54;0.50;99.90
14097;DHT22;7125;48.106;11.544;2023-02-26T14:20:06;0.50;99.90
14097;DHT22;7125;48.106;11.544;2023-02-26T14:22:35;0.50;99.90
14097;DHT22;7125;48.106;11.544;2023-02-26T14:25:16;0.50;99.90
14097;DHT22;7125;48.106;11.544;2023-02-26T14:27:45;0.60;99.90
14097;DHT22;7125;48.106;11.544;2023-02-26T14:30:26;0.70;99.90
14097;DHT22;7125;48.106;11.544;2023-02-26T14:33:06;0.80;99.90
14097;DHT22;7125;48.106;11.544;2023-02-26T14:35:39;0.90;99.90
14097;DHT22;7125;48.106;11.544;2023-02-26T14:38:11;1.00;99.90
14097;DHT22;7125;48.106;11.544;2023-02-26T14:40:43;1.00;99.90
14097;DHT22;7125;48.106;11.544;2023-02-26T14:43:17;1.00;99.90
14097;DHT22;7125;48.106;11.544;2023-02-26T14:45:48;1.00;99.90
14097;DHT22;7125;48.106;11.544;2023-02-26T14:48:17;1.00;99.90
14097;DHT22;7125;48.106;11.544;2023-02-26T14:50:53;1.10;99.90
14097;DHT22;7125;48.106;11.544;2023-02-26T14:53:51;1.10;99.90
14097;DHT22;7125;48.106;11.544;2023-02-26T14:56:28;1.10;99.90
14097;DHT22;7125;48.106;11.544;2023-02-26T14:59:20;1.00;99.90
14097;DHT22;7125;48.106;11.544;2023-02-26T15:02:14;0.80;99.90
14097;DHT22;7125;48.106;11.544;2023-02-26T15:05:13;0.70;99.90
14097;DHT22;7125;48.106;11.544;2023-02-26T15:07:57;0.70;99.90
14097;DHT22;7125;48.106;11.544;2023-02-26T15:10:38;0.70;99.90
14097;DHT22;7125;48.106;11.544;2023-02-26T15:13:45;0.70;99.90
14097;DHT22;7125;48.106;11.544;2023-02-26T15:16:24;0.70;99.90
14097;DHT22;7125;48.106;11.544;2023-02-26T15:19:15;0.70;99.90
14097;DHT22;7125;48.106;11.544;2023-02-26T15:21:53;0.70;99.90
14097;DHT22;7125;48.106;11.544;2023-02-26T15:24:25;0.60;99.90
14097;DHT22;7125;48.106;11.544;2023-02-26T15:26:58;0.60;99.90
14097;DHT22;7125;48.106;11.544;2023-02-26T15:29:29;0.60;99.90
14097;DHT22;7125;48.106;11.544;2023-02-26T15:31:59;0.60;99.90
14097;DHT22;7125;48.106;11.544;2023-02-26T15:34:29;0.60;99.90
14097;DHT22;7125;48.106;11.544;2023-02-26T15:36:58;0.50;99.90
14097;DHT22;7125;48.106;11.544;2023-02-26T15:39:27;0.40;99.90
14097;DHT22;7125;48.106;11.544;2023-02-26T15:41:55;0.40;99.90
14097;DHT22;7125;48.106;11.544;2023-02-26T15:44:27;0.30;99.90
14097;DHT22;7125;48.106;11.544;2023-02-26T15:47:05;0.30;99.90
14097;DHT22;7125;48.106;11.544;2023-02-26T15:49:36;0.20;99.90
14097;DHT22;7125;48.106;11.544;2023-02-26T15:52:05;0.20;99.90
14097;DHT22;7125;48.106;11.544;2023-02-26T15:54:34;0.20;99.90
14097;DHT22;7125;48.106;11.544;2023-02-26T15:57:04;0.20;99.90
14097;DHT22;7125;48.106;11.544;2023-02-26T15:59:33;0.30;99.90
14097;DHT22;7125;48.106;11.544;2023-02-26T16:02:10;0.30;99.90
14097;DHT22;7125;48.106;11.544;2023-02-26T16:04:40;0.30;99.90
14097;DHT22;7125;48.106;11.544;2023-02-26T16:07:09;0.30;99.90
14097;DHT22;7125;48.106;11.544;2023-02-26T16:09:40;0.20;99.90
14097;DHT22;7125;48.106;11.544;2023-02-26T16:12:11;0.20;99.90
14097;DHT22;7125;48.106;11.544;2023-02-26T16:14:45;0.10;99.90